Apache, Nevada
Current Conditions -  °F | °C
As of 11:56 PM on Sunday 23 Nov 2014 (Local Time) from KWMC Reporting Station
Clear Clear  
Wind Chill: 18°   Ceiling: Unl
Heat Index: 24°   Visibility: 10mi
Dew Point: 21°   Wind: 5mph
Humidity: 88%   Direction: 290°WNW
Pressure: 30.33"   Gusts: NA
Location:  40.601°N, 117.984°W
Report Text: KWMC 240756Z AUTO 29004KT 10SM CLR M04/M06 A3033 RMK AO2 SLP288 T10441061 400671050 $
Loading
Personal Weather Stations






























Interactive Weather Map New forecast layout! Learn more

10-Day Weather Forecast

Advertisements
Track Severe Weather on mobile